sensor_id;sensor_type;location;lat;lon;timestamp;P1;durP1;ratioP1;P2;durP2;ratioP2
74900;SDS011;63461;51.416;6.758;2023-04-19T00:32:51;23.10;;;11.57;;
74900;SDS011;63461;51.416;6.758;2023-04-19T00:35:17;22.47;;;12.37;;
74900;SDS011;63461;51.416;6.758;2023-04-19T00:40:46;27.30;;;12.93;;
74900;SDS011;63461;51.416;6.758;2023-04-19T00:43:16;23.13;;;12.73;;
74900;SDS011;63461;51.416;6.758;2023-04-19T01:46:01;19.40;;;11.47;;
74900;SDS011;63461;51.416;6.758;2023-04-19T01:52:54;21.20;;;11.80;;
74900;SDS011;63461;51.416;6.758;2023-04-19T01:56:49;22.37;;;12.13;;
74900;SDS011;63461;51.416;6.758;2023-04-19T01:59:15;20.70;;;11.37;;
74900;SDS011;63461;51.416;6.758;2023-04-19T02:10:58;23.93;;;12.67;;
74900;SDS011;63461;51.416;6.758;2023-04-19T02:17:59;24.27;;;11.53;;
74900;SDS011;63461;51.416;6.758;2023-04-19T02:21:00;22.17;;;12.47;;
74900;SDS011;63461;51.416;6.758;2023-04-19T02:40:10;20.97;;;11.93;;
74900;SDS011;63461;51.416;6.758;2023-04-19T02:43:49;23.37;;;12.23;;
74900;SDS011;63461;51.416;6.758;2023-04-19T02:46:22;22.13;;;11.20;;
74900;SDS011;63461;51.416;6.758;2023-04-19T03:28:55;12.93;;;7.30;;
74900;SDS011;63461;51.416;6.758;2023-04-19T03:40:20;12.23;;;6.57;;
74900;SDS011;63461;51.416;6.758;2023-04-19T03:58:29;12.27;;;6.80;;
74900;SDS011;63461;51.416;6.758;2023-04-19T04:04:51;13.40;;;6.57;;
74900;SDS011;63461;51.416;6.758;2023-04-19T04:11:26;12.53;;;6.43;;
74900;SDS011;63461;51.416;6.758;2023-04-19T04:14:45;10.03;;;5.40;;
74900;SDS011;63461;51.416;6.758;2023-04-19T04:17:20;13.33;;;6.27;;
74900;SDS011;63461;51.416;6.758;2023-04-19T04:48:34;9.63;;;4.60;;
74900;SDS011;63461;51.416;6.758;2023-04-19T04:51:06;9.13;;;4.70;;
74900;SDS011;63461;51.416;6.758;2023-04-19T05:00:30;8.43;;;4.47;;
74900;SDS011;63461;51.416;6.758;2023-04-19T05:34:47;10.57;;;5.77;;
74900;SDS011;63461;51.416;6.758;2023-04-19T05:37:14;10.70;;;5.70;;
74900;SDS011;63461;51.416;6.758;2023-04-19T05:45:54;10.70;;;5.63;;
74900;SDS011;63461;51.416;6.758;2023-04-19T05:52:11;13.47;;;6.00;;
74900;SDS011;63461;51.416;6.758;2023-04-19T06:25:34;11.80;;;5.40;;
74900;SDS011;63461;51.416;6.758;2023-04-19T06:28:00;12.27;;;5.50;;
74900;SDS011;63461;51.416;6.758;2023-04-19T06:30:26;13.40;;;5.80;;
74900;SDS011;63461;51.416;6.758;2023-04-19T06:32:55;8.57;;;5.10;;
74900;SDS011;63461;51.416;6.758;2023-04-19T06:35:20;8.93;;;5.43;;
74900;SDS011;63461;51.416;6.758;2023-04-19T06:37:52;9.17;;;4.80;;
74900;SDS011;63461;51.416;6.758;2023-04-19T06:40:18;10.37;;;4.20;;
74900;SDS011;63461;51.416;6.758;2023-04-19T06:42:50;11.57;;;4.50;;
74900;SDS011;63461;51.416;6.758;2023-04-19T06:45:15;11.90;;;4.60;;
74900;SDS011;63461;51.416;6.758;2023-04-19T06:47:41;10.37;;;5.03;;
74900;SDS011;63461;51.416;6.758;2023-04-19T06:50:07;11.10;;;4.57;;
74900;SDS011;63461;51.416;6.758;2023-04-19T06:52:36;11.13;;;4.87;;
74900;SDS011;63461;51.416;6.758;2023-04-19T06:55:03;11.73;;;4.80;;
74900;SDS011;63461;51.416;6.758;2023-04-19T06:57:31;10.07;;;5.07;;
74900;SDS011;63461;51.416;6.758;2023-04-19T07:00:00;13.83;;;4.37;;
74900;SDS011;63461;51.416;6.758;2023-04-19T07:02:26;8.33;;;4.10;;
74900;SDS011;63461;51.416;6.758;2023-04-19T07:04:54;8.47;;;4.27;;
74900;SDS011;63461;51.416;6.758;2023-04-19T07:07:20;13.23;;;4.20;;
74900;SDS011;63461;51.416;6.758;2023-04-19T07:09:46;8.43;;;3.93;;
74900;SDS011;63461;51.416;6.758;2023-04-19T07:12:12;8.87;;;4.70;;
74900;SDS011;63461;51.416;6.758;2023-04-19T07:14:37;7.67;;;4.13;;
74900;SDS011;63461;51.416;6.758;2023-04-19T07:17:06;9.43;;;3.90;;
74900;SDS011;63461;51.416;6.758;2023-04-19T07:19:32;13.87;;;4.17;;
74900;SDS011;63461;51.416;6.758;2023-04-19T07:21:59;7.83;;;4.20;;
74900;SDS011;63461;51.416;6.758;2023-04-19T07:24:25;9.90;;;4.17;;
74900;SDS011;63461;51.416;6.758;2023-04-19T07:26:53;9.83;;;4.40;;
74900;SDS011;63461;51.416;6.758;2023-04-19T07:29:19;10.93;;;4.13;;
74900;SDS011;63461;51.416;6.758;2023-04-19T07:31:45;10.30;;;4.07;;
74900;SDS011;63461;51.416;6.758;2023-04-19T07:34:11;6.97;;;4.23;;
74900;SDS011;63461;51.416;6.758;2023-04-19T07:36:37;11.07;;;4.13;;
74900;SDS011;63461;51.416;6.758;2023-04-19T07:39:03;10.17;;;4.03;;
74900;SDS011;63461;51.416;6.758;2023-04-19T07:41:30;8.43;;;4.03;;
74900;SDS011;63461;51.416;6.758;2023-04-19T07:43:56;11.83;;;4.10;;
74900;SDS011;63461;51.416;6.758;2023-04-19T07:46:22;10.83;;;4.10;;
74900;SDS011;63461;51.416;6.758;2023-04-19T07:48:48;6.97;;;4.00;;
74900;SDS011;63461;51.416;6.758;2023-04-19T07:51:17;9.40;;;3.90;;
74900;SDS011;63461;51.416;6.758;2023-04-19T07:53:43;10.50;;;4.30;;
74900;SDS011;63461;51.416;6.758;2023-04-19T07:56:13;7.23;;;4.00;;
74900;SDS011;63461;51.416;6.758;2023-04-19T07:58:39;7.97;;;3.87;;
74900;SDS011;63461;51.416;6.758;2023-04-19T08:01:05;10.13;;;3.73;;
74900;SDS011;63461;51.416;6.758;2023-04-19T08:03:32;6.73;;;3.70;;
74900;SDS011;63461;51.416;6.758;2023-04-19T08:06:02;8.00;;;3.67;;
74900;SDS011;63461;51.416;6.758;2023-04-19T08:08:30;7.33;;;3.20;;
74900;SDS011;63461;51.416;6.758;2023-04-19T08:10:55;6.57;;;3.47;;
74900;SDS011;63461;51.416;6.758;2023-04-19T08:13:21;8.73;;;3.97;;
74900;SDS011;63461;51.416;6.758;2023-04-19T08:15:47;8.03;;;3.30;;
74900;SDS011;63461;51.416;6.758;2023-04-19T08:18:13;8.90;;;3.10;;
74900;SDS011;63461;51.416;6.758;2023-04-19T08:20:39;9.63;;;3.90;;
74900;SDS011;63461;51.416;6.758;2023-04-19T08:23:09;10.30;;;4.00;;
74900;SDS011;63461;51.416;6.758;2023-04-19T08:25:37;10.27;;;3.10;;
74900;SDS011;63461;51.416;6.758;2023-04-19T08:28:03;9.93;;;3.50;;
74900;SDS011;63461;51.416;6.758;2023-04-19T08:30:32;12.90;;;3.30;;
74900;SDS011;63461;51.416;6.758;2023-04-19T08:32:58;7.43;;;3.07;;
74900;SDS011;63461;51.416;6.758;2023-04-19T08:35:25;9.00;;;3.90;;
74900;SDS011;63461;51.416;6.758;2023-04-19T08:37:51;9.33;;;3.00;;
74900;SDS011;63461;51.416;6.758;2023-04-19T08:40:17;8.73;;;3.33;;
74900;SDS011;63461;51.416;6.758;2023-04-19T08:42:46;8.07;;;3.33;;
74900;SDS011;63461;51.416;6.758;2023-04-19T08:45:11;8.87;;;2.93;;
74900;SDS011;63461;51.416;6.758;2023-04-19T08:47:43;9.03;;;3.13;;
74900;SDS011;63461;51.416;6.758;2023-04-19T08:50:11;5.13;;;3.17;;
74900;SDS011;63461;51.416;6.758;2023-04-19T08:52:37;8.13;;;2.87;;
74900;SDS011;63461;51.416;6.758;2023-04-19T08:55:07;8.53;;;3.33;;
74900;SDS011;63461;51.416;6.758;2023-04-19T08:57:36;6.87;;;2.90;;
74900;SDS011;63461;51.416;6.758;2023-04-19T09:00:02;9.40;;;3.40;;
74900;SDS011;63461;51.416;6.758;2023-04-19T09:02:49;9.17;;;3.00;;
74900;SDS011;63461;51.416;6.758;2023-04-19T09:05:16;5.80;;;2.90;;
74900;SDS011;63461;51.416;6.758;2023-04-19T09:07:43;7.60;;;3.17;;
74900;SDS011;63461;51.416;6.758;2023-04-19T09:10:13;13.23;;;3.70;;
74900;SDS011;63461;51.416;6.758;2023-04-19T09:12:43;5.23;;;2.50;;
74900;SDS011;63461;51.416;6.758;2023-04-19T09:15:34;5.83;;;2.67;;
74900;SDS011;63461;51.416;6.758;2023-04-19T09:18:05;3.90;;;2.50;;
74900;SDS011;63461;51.416;6.758;2023-04-19T09:20:37;7.20;;;3.30;;
74900;SDS011;63461;51.416;6.758;2023-04-19T09:23:09;7.27;;;2.80;;
74900;SDS011;63461;51.416;6.758;2023-04-19T09:25:39;8.30;;;3.07;;
74900;SDS011;63461;51.416;6.758;2023-04-19T09:28:26;6.03;;;2.87;;
74900;SDS011;63461;51.416;6.758;2023-04-19T09:30:52;7.77;;;2.87;;
74900;SDS011;63461;51.416;6.758;2023-04-19T09:33:32;5.03;;;2.60;;
74900;SDS011;63461;51.416;6.758;2023-04-19T09:36:01;6.57;;;2.77;;
74900;SDS011;63461;51.416;6.758;2023-04-19T09:38:27;6.37;;;2.77;;
74900;SDS011;63461;51.416;6.758;2023-04-19T09:41:05;5.50;;;2.50;;
74900;SDS011;63461;51.416;6.758;2023-04-19T09:43:32;5.83;;;2.53;;
74900;SDS011;63461;51.416;6.758;2023-04-19T09:45:59;7.20;;;2.70;;
74900;SDS011;63461;51.416;6.758;2023-04-19T09:48:25;7.57;;;2.80;;
74900;SDS011;63461;51.416;6.758;2023-04-19T09:50:52;4.50;;;2.20;;
74900;SDS011;63461;51.416;6.758;2023-04-19T09:53:19;5.50;;;2.33;;
74900;SDS011;63461;51.416;6.758;2023-04-19T09:55:49;8.43;;;2.10;;
74900;SDS011;63461;51.416;6.758;2023-04-19T09:58:17;5.57;;;2.00;;
74900;SDS011;63461;51.416;6.758;2023-04-19T10:00:45;5.43;;;2.23;;
74900;SDS011;63461;51.416;6.758;2023-04-19T10:03:13;3.70;;;1.93;;
74900;SDS011;63461;51.416;6.758;2023-04-19T10:05:40;5.57;;;3.30;;
74900;SDS011;63461;51.416;6.758;2023-04-19T10:08:08;3.27;;;1.80;;
74900;SDS011;63461;51.416;6.758;2023-04-19T10:10:38;4.73;;;2.20;;
74900;SDS011;63461;51.416;6.758;2023-04-19T10:13:12;5.63;;;2.40;;
74900;SDS011;63461;51.416;6.758;2023-04-19T10:15:47;5.00;;;2.83;;
74900;SDS011;63461;51.416;6.758;2023-04-19T10:18:15;8.73;;;2.43;;
74900;SDS011;63461;51.416;6.758;2023-04-19T10:20:57;7.33;;;2.07;;
74900;SDS011;63461;51.416;6.758;2023-04-19T10:23:30;4.17;;;1.53;;
74900;SDS011;63461;51.416;6.758;2023-04-19T10:25:57;4.30;;;2.47;;
74900;SDS011;63461;51.416;6.758;2023-04-19T10:28:29;7.73;;;2.10;;
74900;SDS011;63461;51.416;6.758;2023-04-19T10:31:02;6.87;;;2.93;;
74900;SDS011;63461;51.416;6.758;2023-04-19T10:33:35;5.20;;;2.30;;
74900;SDS011;63461;51.416;6.758;2023-04-19T10:36:07;6.00;;;2.50;;
74900;SDS011;63461;51.416;6.758;2023-04-19T10:38:41;5.60;;;2.57;;
74900;SDS011;63461;51.416;6.758;2023-04-19T10:41:11;9.20;;;2.73;;
74900;SDS011;63461;51.416;6.758;2023-04-19T10:43:44;5.93;;;2.43;;
74900;SDS011;63461;51.416;6.758;2023-04-19T10:49:02;5.13;;;2.27;;
74900;SDS011;63461;51.416;6.758;2023-04-19T10:51:35;5.13;;;2.47;;
74900;SDS011;63461;51.416;6.758;2023-04-19T10:54:27;2.87;;;1.53;;
74900;SDS011;63461;51.416;6.758;2023-04-19T10:56:56;6.60;;;2.57;;
74900;SDS011;63461;51.416;6.758;2023-04-19T10:59:30;8.73;;;2.10;;
74900;SDS011;63461;51.416;6.758;2023-04-19T11:02:03;6.67;;;2.20;;
74900;SDS011;63461;51.416;6.758;2023-04-19T11:07:23;8.60;;;2.90;;
74900;SDS011;63461;51.416;6.758;2023-04-19T11:09:49;4.90;;;2.87;;
74900;SDS011;63461;51.416;6.758;2023-04-19T11:12:18;5.83;;;2.70;;
74900;SDS011;63461;51.416;6.758;2023-04-19T11:14:45;6.20;;;3.00;;
74900;SDS011;63461;51.416;6.758;2023-04-19T11:17:16;9.50;;;3.20;;
74900;SDS011;63461;51.416;6.758;2023-04-19T11:23:17;5.47;;;2.50;;
74900;SDS011;63461;51.416;6.758;2023-04-19T11:26:04;5.70;;;2.90;;
74900;SDS011;63461;51.416;6.758;2023-04-19T11:28:32;5.30;;;2.43;;
74900;SDS011;63461;51.416;6.758;2023-04-19T11:30:58;7.57;;;2.37;;
74900;SDS011;63461;51.416;6.758;2023-04-19T11:33:34;5.10;;;2.40;;
74900;SDS011;63461;51.416;6.758;2023-04-19T11:36:01;5.97;;;3.00;;
74900;SDS011;63461;51.416;6.758;2023-04-19T11:38:28;5.77;;;2.70;;
74900;SDS011;63461;51.416;6.758;2023-04-19T11:40:58;5.53;;;2.50;;
74900;SDS011;63461;51.416;6.758;2023-04-19T11:43:35;4.73;;;2.60;;
74900;SDS011;63461;51.416;6.758;2023-04-19T11:46:08;6.77;;;2.40;;
74900;SDS011;63461;51.416;6.758;2023-04-19T11:48:35;2.83;;;1.53;;
74900;SDS011;63461;51.416;6.758;2023-04-19T11:51:09;4.93;;;2.40;;
74900;SDS011;63461;51.416;6.758;2023-04-19T11:53:35;13.00;;;2.57;;
74900;SDS011;63461;51.416;6.758;2023-04-19T11:56:05;5.27;;;2.70;;
74900;SDS011;63461;51.416;6.758;2023-04-19T11:58:37;6.20;;;2.67;;
74900;SDS011;63461;51.416;6.758;2023-04-19T12:06:27;6.30;;;3.13;;
74900;SDS011;63461;51.416;6.758;2023-04-19T12:09:05;4.53;;;2.70;;
74900;SDS011;63461;51.416;6.758;2023-04-19T12:11:42;4.37;;;2.83;;
74900;SDS011;63461;51.416;6.758;2023-04-19T12:14:10;4.20;;;2.30;;
74900;SDS011;63461;51.416;6.758;2023-04-19T12:16:44;8.53;;;3.13;;
74900;SDS011;63461;51.416;6.758;2023-04-19T12:19:10;5.67;;;2.47;;
74900;SDS011;63461;51.416;6.758;2023-04-19T12:21:47;5.23;;;2.73;;
74900;SDS011;63461;51.416;6.758;2023-04-19T12:24:14;7.47;;;2.60;;
74900;SDS011;63461;51.416;6.758;2023-04-19T12:26:59;6.27;;;3.00;;
74900;SDS011;63461;51.416;6.758;2023-04-19T12:29:28;6.40;;;2.90;;
74900;SDS011;63461;51.416;6.758;2023-04-19T12:32:00;7.57;;;2.63;;
74900;SDS011;63461;51.416;6.758;2023-04-19T12:34:29;5.47;;;2.60;;
74900;SDS011;63461;51.416;6.758;2023-04-19T12:36:58;8.47;;;2.67;;
74900;SDS011;63461;51.416;6.758;2023-04-19T12:39:24;6.07;;;2.77;;
74900;SDS011;63461;51.416;6.758;2023-04-19T12:42:08;7.10;;;2.40;;
74900;SDS011;63461;51.416;6.758;2023-04-19T12:44:34;8.00;;;3.30;;
74900;SDS011;63461;51.416;6.758;2023-04-19T12:47:03;9.07;;;3.50;;
74900;SDS011;63461;51.416;6.758;2023-04-19T12:49:32;7.17;;;3.20;;
74900;SDS011;63461;51.416;6.758;2023-04-19T12:52:01;9.33;;;3.40;;
74900;SDS011;63461;51.416;6.758;2023-04-19T12:54:28;6.30;;;2.90;;
74900;SDS011;63461;51.416;6.758;2023-04-19T12:59:56;9.47;;;3.50;;
74900;SDS011;63461;51.416;6.758;2023-04-19T13:02:44;5.13;;;3.00;;
74900;SDS011;63461;51.416;6.758;2023-04-19T13:05:18;5.80;;;2.90;;
74900;SDS011;63461;51.416;6.758;2023-04-19T13:11:14;5.50;;;3.00;;
74900;SDS011;63461;51.416;6.758;2023-04-19T13:13:47;7.33;;;2.27;;
74900;SDS011;63461;51.416;6.758;2023-04-19T13:16:30;5.20;;;2.67;;
74900;SDS011;63461;51.416;6.758;2023-04-19T13:22:25;4.03;;;2.67;;
74900;SDS011;63461;51.416;6.758;2023-04-19T14:32:08;4.33;;;2.63;;
74900;SDS011;63461;51.416;6.758;2023-04-19T14:38:19;4.47;;;2.67;;
74900;SDS011;63461;51.416;6.758;2023-04-19T14:40:58;5.87;;;2.50;;
74900;SDS011;63461;51.416;6.758;2023-04-19T14:43:28;5.77;;;2.77;;
74900;SDS011;63461;51.416;6.758;2023-04-19T14:45:55;7.07;;;2.43;;
74900;SDS011;63461;51.416;6.758;2023-04-19T14:48:23;5.10;;;2.40;;
74900;SDS011;63461;51.416;6.758;2023-04-19T14:50:49;5.50;;;2.67;;
74900;SDS011;63461;51.416;6.758;2023-04-19T14:53:15;2.17;;;1.20;;
74900;SDS011;63461;51.416;6.758;2023-04-19T14:59:17;5.00;;;2.50;;
74900;SDS011;63461;51.416;6.758;2023-04-19T15:01:52;3.87;;;2.20;;
74900;SDS011;63461;51.416;6.758;2023-04-19T15:04:19;3.70;;;1.90;;
74900;SDS011;63461;51.416;6.758;2023-04-19T15:06:49;3.90;;;2.10;;
74900;SDS011;63461;51.416;6.758;2023-04-19T15:09:54;5.23;;;2.13;;
74900;SDS011;63461;51.416;6.758;2023-04-19T15:15:40;3.07;;;1.97;;
74900;SDS011;63461;51.416;6.758;2023-04-19T15:18:13;6.53;;;2.23;;
74900;SDS011;63461;51.416;6.758;2023-04-19T15:20:47;6.77;;;2.23;;
74900;SDS011;63461;51.416;6.758;2023-04-19T15:23:24;5.10;;;2.10;;
74900;SDS011;63461;51.416;6.758;2023-04-19T15:25:50;3.57;;;2.43;;
74900;SDS011;63461;51.416;6.758;2023-04-19T15:28:19;5.80;;;2.40;;
74900;SDS011;63461;51.416;6.758;2023-04-19T15:30:58;5.47;;;2.10;;
74900;SDS011;63461;51.416;6.758;2023-04-19T15:33:30;7.27;;;2.50;;
74900;SDS011;63461;51.416;6.758;2023-04-19T15:36:00;4.50;;;2.60;;
74900;SDS011;63461;51.416;6.758;2023-04-19T15:38:28;6.70;;;2.30;;
74900;SDS011;63461;51.416;6.758;2023-04-19T15:40:55;4.23;;;2.43;;
74900;SDS011;63461;51.416;6.758;2023-04-19T15:43:23;6.00;;;2.57;;
74900;SDS011;63461;51.416;6.758;2023-04-19T15:45:53;7.70;;;2.27;;
74900;SDS011;63461;51.416;6.758;2023-04-19T15:48:22;5.60;;;2.40;;
74900;SDS011;63461;51.416;6.758;2023-04-19T15:50:48;4.70;;;2.30;;
74900;SDS011;63461;51.416;6.758;2023-04-19T15:53:15;3.20;;;1.93;;
74900;SDS011;63461;51.416;6.758;2023-04-19T15:55:44;6.10;;;2.20;;
74900;SDS011;63461;51.416;6.758;2023-04-19T15:58:13;2.83;;;2.00;;
74900;SDS011;63461;51.416;6.758;2023-04-19T16:00:39;8.23;;;2.47;;
74900;SDS011;63461;51.416;6.758;2023-04-19T16:03:08;4.03;;;2.27;;
74900;SDS011;63461;51.416;6.758;2023-04-19T16:05:39;3.83;;;2.00;;
74900;SDS011;63461;51.416;6.758;2023-04-19T16:08:06;6.73;;;2.10;;
74900;SDS011;63461;51.416;6.758;2023-04-19T16:10:33;6.13;;;1.97;;
74900;SDS011;63461;51.416;6.758;2023-04-19T16:13:09;3.50;;;1.87;;
74900;SDS011;63461;51.416;6.758;2023-04-19T16:15:42;4.10;;;2.07;;
74900;SDS011;63461;51.416;6.758;2023-04-19T16:18:10;9.83;;;2.20;;
74900;SDS011;63461;51.416;6.758;2023-04-19T16:20:43;3.17;;;2.00;;
74900;SDS011;63461;51.416;6.758;2023-04-19T16:23:09;5.13;;;2.30;;
74900;SDS011;63461;51.416;6.758;2023-04-19T16:25:41;7.13;;;2.50;;
74900;SDS011;63461;51.416;6.758;2023-04-19T16:28:07;2.57;;;1.53;;
74900;SDS011;63461;51.416;6.758;2023-04-19T16:30:36;5.70;;;1.77;;
74900;SDS011;63461;51.416;6.758;2023-04-19T16:33:02;5.10;;;1.70;;
74900;SDS011;63461;51.416;6.758;2023-04-19T16:35:32;4.33;;;1.90;;
74900;SDS011;63461;51.416;6.758;2023-04-19T16:37:59;2.93;;;1.70;;
74900;SDS011;63461;51.416;6.758;2023-04-19T16:40:28;5.17;;;1.70;;
74900;SDS011;63461;51.416;6.758;2023-04-19T16:42:55;2.83;;;1.90;;
74900;SDS011;63461;51.416;6.758;2023-04-19T16:45:25;4.87;;;1.70;;
74900;SDS011;63461;51.416;6.758;2023-04-19T16:47:51;2.87;;;1.60;;
74900;SDS011;63461;51.416;6.758;2023-04-19T16:50:21;5.77;;;2.00;;
74900;SDS011;63461;51.416;6.758;2023-04-19T16:52:49;6.67;;;2.17;;
74900;SDS011;63461;51.416;6.758;2023-04-19T16:55:17;2.77;;;1.53;;
74900;SDS011;63461;51.416;6.758;2023-04-19T16:58:01;5.73;;;1.97;;
74900;SDS011;63461;51.416;6.758;2023-04-19T17:00:33;1.57;;;1.13;;
74900;SDS011;63461;51.416;6.758;2023-04-19T17:03:15;4.60;;;1.67;;
74900;SDS011;63461;51.416;6.758;2023-04-19T17:05:58;3.43;;;1.80;;
74900;SDS011;63461;51.416;6.758;2023-04-19T17:12:54;2.97;;;1.53;;
74900;SDS011;63461;51.416;6.758;2023-04-19T17:15:29;4.57;;;1.83;;
74900;SDS011;63461;51.416;6.758;2023-04-19T17:18:48;8.10;;;1.70;;
74900;SDS011;63461;51.416;6.758;2023-04-19T17:21:24;3.53;;;1.60;;
74900;SDS011;63461;51.416;6.758;2023-04-19T17:45:22;6.37;;;1.93;;
74900;SDS011;63461;51.416;6.758;2023-04-19T17:48:06;4.90;;;1.50;;
74900;SDS011;63461;51.416;6.758;2023-04-19T17:50:38;5.37;;;2.00;;
74900;SDS011;63461;51.416;6.758;2023-04-19T17:56:27;3.90;;;2.10;;
74900;SDS011;63461;51.416;6.758;2023-04-19T17:59:38;6.73;;;2.30;;
74900;SDS011;63461;51.416;6.758;2023-04-19T18:02:07;5.20;;;2.50;;
74900;SDS011;63461;51.416;6.758;2023-04-19T18:04:34;4.57;;;1.80;;
74900;SDS011;63461;51.416;6.758;2023-04-19T18:07:22;6.63;;;2.33;;
74900;SDS011;63461;51.416;6.758;2023-04-19T18:09:49;5.93;;;2.63;;
74900;SDS011;63461;51.416;6.758;2023-04-19T18:12:14;4.40;;;2.10;;
74900;SDS011;63461;51.416;6.758;2023-04-19T18:14:40;9.03;;;2.57;;
74900;SDS011;63461;51.416;6.758;2023-04-19T18:17:06;8.47;;;2.50;;
74900;SDS011;63461;51.416;6.758;2023-04-19T18:19:32;6.93;;;2.10;;
74900;SDS011;63461;51.416;6.758;2023-04-19T18:21:58;6.00;;;2.83;;
74900;SDS011;63461;51.416;6.758;2023-04-19T18:24:25;4.57;;;2.47;;
74900;SDS011;63461;51.416;6.758;2023-04-19T18:26:51;6.40;;;2.50;;
74900;SDS011;63461;51.416;6.758;2023-04-19T18:29:16;4.43;;;2.70;;
74900;SDS011;63461;51.416;6.758;2023-04-19T18:31:45;11.83;;;3.80;;
74900;SDS011;63461;51.416;6.758;2023-04-19T18:34:10;7.10;;;3.00;;
74900;SDS011;63461;51.416;6.758;2023-04-19T18:36:36;7.27;;;3.07;;
74900;SDS011;63461;51.416;6.758;2023-04-19T18:39:02;9.47;;;3.87;;
74900;SDS011;63461;51.416;6.758;2023-04-19T18:41:28;5.33;;;2.87;;
74900;SDS011;63461;51.416;6.758;2023-04-19T18:43:53;8.00;;;2.90;;
74900;SDS011;63461;51.416;6.758;2023-04-19T18:46:19;10.80;;;3.53;;
74900;SDS011;63461;51.416;6.758;2023-04-19T18:48:46;6.83;;;2.83;;
74900;SDS011;63461;51.416;6.758;2023-04-19T18:51:11;8.17;;;2.87;;
74900;SDS011;63461;51.416;6.758;2023-04-19T18:53:38;8.07;;;2.83;;
74900;SDS011;63461;51.416;6.758;2023-04-19T18:56:06;7.97;;;2.80;;
74900;SDS011;63461;51.416;6.758;2023-04-19T18:58:34;14.60;;;3.40;;
74900;SDS011;63461;51.416;6.758;2023-04-19T19:01:03;7.63;;;3.30;;
74900;SDS011;63461;51.416;6.758;2023-04-19T19:06:54;13.03;;;2.87;;
74900;SDS011;63461;51.416;6.758;2023-04-19T19:13:05;7.50;;;2.87;;
74900;SDS011;63461;51.416;6.758;2023-04-19T19:38:39;9.83;;;3.60;;
74900;SDS011;63461;51.416;6.758;2023-04-19T21:36:50;5.53;;;2.50;;
74900;SDS011;63461;51.416;6.758;2023-04-19T21:43:15;5.60;;;2.60;;
74900;SDS011;63461;51.416;6.758;2023-04-19T21:46:42;6.03;;;2.50;;
74900;SDS011;63461;51.416;6.758;2023-04-19T21:49:13;9.83;;;2.80;;
74900;SDS011;63461;51.416;6.758;2023-04-19T21:54:56;5.93;;;2.37;;
74900;SDS011;63461;51.416;6.758;2023-04-19T21:57:21;5.00;;;2.60;;
74900;SDS011;63461;51.416;6.758;2023-04-19T22:00:34;5.60;;;2.47;;
74900;SDS011;63461;51.416;6.758;2023-04-19T22:05:55;6.80;;;2.70;;
74900;SDS011;63461;51.416;6.758;2023-04-19T22:12:58;5.63;;;2.43;;
74900;SDS011;63461;51.416;6.758;2023-04-19T22:15:40;7.07;;;2.53;;
74900;SDS011;63461;51.416;6.758;2023-04-19T22:29:40;4.33;;;2.57;;
74900;SDS011;63461;51.416;6.758;2023-04-19T22:36:39;5.37;;;2.20;;
74900;SDS011;63461;51.416;6.758;2023-04-19T22:39:13;5.90;;;2.37;;
74900;SDS011;63461;51.416;6.758;2023-04-19T22:46:50;6.30;;;2.90;;
74900;SDS011;63461;51.416;6.758;2023-04-19T22:50:08;4.67;;;2.43;;
74900;SDS011;63461;51.416;6.758;2023-04-19T22:53:07;7.40;;;2.50;;
74900;SDS011;63461;51.416;6.758;2023-04-19T22:55:39;9.73;;;2.60;;
74900;SDS011;63461;51.416;6.758;2023-04-19T23:01:51;10.60;;;2.60;;
74900;SDS011;63461;51.416;6.758;2023-04-19T23:04:17;8.23;;;2.30;;
74900;SDS011;63461;51.416;6.758;2023-04-19T23:10:02;7.03;;;3.20;;
74900;SDS011;63461;51.416;6.758;2023-04-19T23:15:56;5.97;;;2.40;;
74900;SDS011;63461;51.416;6.758;2023-04-19T23:18:46;6.40;;;2.70;;
74900;SDS011;63461;51.416;6.758;2023-04-19T23:21:21;6.77;;;2.57;;
74900;SDS011;63461;51.416;6.758;2023-04-19T23:39:55;7.20;;;2.53;;
